Nanticoke, Canada
Current Conditions -  °F | °C
As of 10:00 PM on Thursday 18 Dec 2014 (Local Time) from CYHM Reporting Station
Overcast Overcast  
Wind Chill: 16°   Ceiling: 1200
Heat Index: 27°   Visibility: 15mi
Dew Point: 21°   Wind: 13mph
Humidity: 80%   Direction: 290°WNW
Pressure: 30.09"   Gusts: NA
Location:  42.81°N, 80.07°W
Report Text: CYHM 190300Z 29011KT 15SM OVC012 M03/M06 A3009 RMK SC8 SLP201
Loading
Personal Weather Stations






























Interactive Weather Map New forecast layout! Learn more

10-Day Weather Forecast

Advertisements
Track Severe Weather on mobile